sensor_id;sensor_type;location;lat;lon;timestamp;P1;durP1;ratioP1;P2;durP2;ratioP2
37131;SDS011;23035;50.032;21.978;2022-12-07T00:04:34;13.00;;;8.63;;
37131;SDS011;23035;50.032;21.978;2022-12-07T00:09:38;13.90;;;9.23;;
37131;SDS011;23035;50.032;21.978;2022-12-07T00:14:45;17.25;;;10.82;;
37131;SDS011;23035;50.032;21.978;2022-12-07T00:19:50;13.43;;;8.18;;
37131;SDS011;23035;50.032;21.978;2022-12-07T00:24:54;17.95;;;8.55;;
37131;SDS011;23035;50.032;21.978;2022-12-07T00:30:00;13.55;;;7.38;;
37131;SDS011;23035;50.032;21.978;2022-12-07T00:35:05;9.38;;;6.20;;
37131;SDS011;23035;50.032;21.978;2022-12-07T00:40:10;10.80;;;6.88;;
37131;SDS011;23035;50.032;21.978;2022-12-07T00:45:16;11.17;;;7.27;;
37131;SDS011;23035;50.032;21.978;2022-12-07T00:50:21;11.80;;;7.63;;
37131;SDS011;23035;50.032;21.978;2022-12-07T00:55:25;12.70;;;7.63;;
37131;SDS011;23035;50.032;21.978;2022-12-07T01:00:30;9.73;;;6.85;;
37131;SDS011;23035;50.032;21.978;2022-12-07T01:05:36;13.18;;;8.15;;
37131;SDS011;23035;50.032;21.978;2022-12-07T01:10:40;15.13;;;10.23;;
37131;SDS011;23035;50.032;21.978;2022-12-07T01:15:45;10.50;;;6.93;;
37131;SDS011;23035;50.032;21.978;2022-12-07T01:20:56;13.50;;;7.88;;
37131;SDS011;23035;50.032;21.978;2022-12-07T01:26:02;12.07;;;7.53;;
37131;SDS011;23035;50.032;21.978;2022-12-07T01:31:10;10.75;;;6.55;;
37131;SDS011;23035;50.032;21.978;2022-12-07T01:36:18;13.73;;;7.88;;
37131;SDS011;23035;50.032;21.978;2022-12-07T01:41:24;16.58;;;8.98;;
37131;SDS011;23035;50.032;21.978;2022-12-07T01:46:31;14.05;;;8.10;;
37131;SDS011;23035;50.032;21.978;2022-12-07T01:51:35;14.00;;;6.68;;
37131;SDS011;23035;50.032;21.978;2022-12-07T01:56:45;10.88;;;6.70;;
37131;SDS011;23035;50.032;21.978;2022-12-07T02:01:54;10.27;;;6.75;;
37131;SDS011;23035;50.032;21.978;2022-12-07T02:06:59;9.60;;;5.38;;
37131;SDS011;23035;50.032;21.978;2022-12-07T02:12:04;10.25;;;5.80;;
37131;SDS011;23035;50.032;21.978;2022-12-07T02:17:11;10.50;;;6.70;;
37131;SDS011;23035;50.032;21.978;2022-12-07T02:22:30;11.00;;;5.60;;
37131;SDS011;23035;50.032;21.978;2022-12-07T02:27:59;13.55;;;5.28;;
37131;SDS011;23035;50.032;21.978;2022-12-07T02:33:14;14.65;;;7.05;;
37131;SDS011;23035;50.032;21.978;2022-12-07T02:38:23;11.30;;;5.30;;
37131;SDS011;23035;50.032;21.978;2022-12-07T02:43:35;10.52;;;5.85;;
37131;SDS011;23035;50.032;21.978;2022-12-07T02:48:46;10.50;;;5.85;;
37131;SDS011;23035;50.032;21.978;2022-12-07T02:53:53;7.15;;;5.03;;
37131;SDS011;23035;50.032;21.978;2022-12-07T02:59:00;6.60;;;4.57;;
37131;SDS011;23035;50.032;21.978;2022-12-07T03:04:24;6.75;;;4.20;;
37131;SDS011;23035;50.032;21.978;2022-12-07T03:09:40;6.45;;;4.25;;
37131;SDS011;23035;50.032;21.978;2022-12-07T03:14:49;7.03;;;5.18;;
37131;SDS011;23035;50.032;21.978;2022-12-07T03:20:02;9.27;;;6.40;;
37131;SDS011;23035;50.032;21.978;2022-12-07T03:25:11;7.45;;;5.07;;
37131;SDS011;23035;50.032;21.978;2022-12-07T03:30:19;8.60;;;5.70;;
37131;SDS011;23035;50.032;21.978;2022-12-07T03:35:28;9.48;;;5.63;;
37131;SDS011;23035;50.032;21.978;2022-12-07T03:40:37;11.90;;;6.15;;
37131;SDS011;23035;50.032;21.978;2022-12-07T03:45:51;9.20;;;5.97;;
37131;SDS011;23035;50.032;21.978;2022-12-07T03:51:09;8.30;;;4.85;;
37131;SDS011;23035;50.032;21.978;2022-12-07T03:56:24;7.88;;;5.05;;
37131;SDS011;23035;50.032;21.978;2022-12-07T04:06:36;9.27;;;4.95;;
37131;SDS011;23035;50.032;21.978;2022-12-07T04:11:40;8.85;;;4.75;;
37131;SDS011;23035;50.032;21.978;2022-12-07T04:16:45;8.27;;;4.93;;
37131;SDS011;23035;50.032;21.978;2022-12-07T04:21:50;8.95;;;5.35;;
37131;SDS011;23035;50.032;21.978;2022-12-07T04:26:54;10.98;;;5.63;;
37131;SDS011;23035;50.032;21.978;2022-12-07T04:31:58;8.88;;;6.03;;
37131;SDS011;23035;50.032;21.978;2022-12-07T04:37:04;9.95;;;6.53;;
37131;SDS011;23035;50.032;21.978;2022-12-07T04:47:13;10.68;;;6.15;;
37131;SDS011;23035;50.032;21.978;2022-12-07T04:52:19;8.88;;;5.78;;
37131;SDS011;23035;50.032;21.978;2022-12-07T04:57:23;8.95;;;5.70;;
37131;SDS011;23035;50.032;21.978;2022-12-07T05:02:27;8.27;;;5.70;;
37131;SDS011;23035;50.032;21.978;2022-12-07T05:07:33;7.00;;;5.60;;
37131;SDS011;23035;50.032;21.978;2022-12-07T05:12:37;14.63;;;5.55;;
37131;SDS011;23035;50.032;21.978;2022-12-07T05:17:41;10.07;;;6.10;;
37131;SDS011;23035;50.032;21.978;2022-12-07T05:22:47;9.75;;;6.22;;
37131;SDS011;23035;50.032;21.978;2022-12-07T05:27:51;13.68;;;6.50;;
37131;SDS011;23035;50.032;21.978;2022-12-07T05:32:56;11.13;;;5.88;;
37131;SDS011;23035;50.032;21.978;2022-12-07T05:38:02;9.90;;;6.30;;
37131;SDS011;23035;50.032;21.978;2022-12-07T05:43:06;12.73;;;7.30;;
37131;SDS011;23035;50.032;21.978;2022-12-07T05:48:12;10.52;;;7.25;;
37131;SDS011;23035;50.032;21.978;2022-12-07T05:53:19;12.10;;;7.53;;
37131;SDS011;23035;50.032;21.978;2022-12-07T05:58:29;7.63;;;6.07;;
37131;SDS011;23035;50.032;21.978;2022-12-07T06:03:54;8.27;;;6.00;;
37131;SDS011;23035;50.032;21.978;2022-12-07T06:08:59;7.05;;;5.68;;
37131;SDS011;23035;50.032;21.978;2022-12-07T06:14:04;8.25;;;5.88;;
37131;SDS011;23035;50.032;21.978;2022-12-07T06:19:08;7.30;;;6.18;;
37131;SDS011;23035;50.032;21.978;2022-12-07T06:24:15;6.78;;;5.97;;
37131;SDS011;23035;50.032;21.978;2022-12-07T06:29:20;11.77;;;7.35;;
37131;SDS011;23035;50.032;21.978;2022-12-07T06:34:25;7.75;;;6.50;;
37131;SDS011;23035;50.032;21.978;2022-12-07T06:39:34;9.35;;;7.22;;
37131;SDS011;23035;50.032;21.978;2022-12-07T06:44:38;10.32;;;7.85;;
37131;SDS011;23035;50.032;21.978;2022-12-07T06:49:43;9.60;;;7.38;;
37131;SDS011;23035;50.032;21.978;2022-12-07T06:54:49;11.13;;;6.87;;
37131;SDS011;23035;50.032;21.978;2022-12-07T06:59:56;9.32;;;7.43;;
37131;SDS011;23035;50.032;21.978;2022-12-07T07:05:00;9.70;;;7.45;;
37131;SDS011;23035;50.032;21.978;2022-12-07T07:10:07;10.98;;;7.60;;
37131;SDS011;23035;50.032;21.978;2022-12-07T07:15:11;9.55;;;7.50;;
37131;SDS011;23035;50.032;21.978;2022-12-07T07:20:15;9.02;;;7.22;;
37131;SDS011;23035;50.032;21.978;2022-12-07T07:25:21;6.80;;;6.07;;
37131;SDS011;23035;50.032;21.978;2022-12-07T07:30:25;11.93;;;7.93;;
37131;SDS011;23035;50.032;21.978;2022-12-07T07:35:33;9.73;;;7.25;;
37131;SDS011;23035;50.032;21.978;2022-12-07T07:40:40;8.73;;;6.22;;
37131;SDS011;23035;50.032;21.978;2022-12-07T07:45:44;7.82;;;6.40;;
37131;SDS011;23035;50.032;21.978;2022-12-07T07:50:48;9.95;;;7.55;;
37131;SDS011;23035;50.032;21.978;2022-12-07T07:55:54;11.65;;;7.78;;
37131;SDS011;23035;50.032;21.978;2022-12-07T08:01:02;10.05;;;6.72;;
37131;SDS011;23035;50.032;21.978;2022-12-07T08:06:07;9.90;;;7.22;;
37131;SDS011;23035;50.032;21.978;2022-12-07T08:11:13;12.05;;;7.95;;
37131;SDS011;23035;50.032;21.978;2022-12-07T08:16:17;10.70;;;7.93;;
37131;SDS011;23035;50.032;21.978;2022-12-07T08:21:22;11.60;;;6.45;;
37131;SDS011;23035;50.032;21.978;2022-12-07T08:26:27;11.07;;;7.05;;
37131;SDS011;23035;50.032;21.978;2022-12-07T08:36:36;10.00;;;7.65;;
37131;SDS011;23035;50.032;21.978;2022-12-07T08:41:42;25.00;;;14.18;;
37131;SDS011;23035;50.032;21.978;2022-12-07T08:46:46;12.00;;;8.85;;
37131;SDS011;23035;50.032;21.978;2022-12-07T08:51:55;13.73;;;8.38;;
37131;SDS011;23035;50.032;21.978;2022-12-07T08:57:00;12.35;;;9.15;;
37131;SDS011;23035;50.032;21.978;2022-12-07T09:02:05;12.10;;;8.02;;
37131;SDS011;23035;50.032;21.978;2022-12-07T09:07:10;12.57;;;8.82;;
37131;SDS011;23035;50.032;21.978;2022-12-07T09:12:16;15.38;;;10.13;;
37131;SDS011;23035;50.032;21.978;2022-12-07T09:17:21;15.02;;;9.15;;
37131;SDS011;23035;50.032;21.978;2022-12-07T09:22:25;15.45;;;8.68;;
37131;SDS011;23035;50.032;21.978;2022-12-07T09:27:33;19.23;;;11.27;;
37131;SDS011;23035;50.032;21.978;2022-12-07T09:37:42;20.75;;;9.52;;
37131;SDS011;23035;50.032;21.978;2022-12-07T09:42:49;16.25;;;7.97;;
37131;SDS011;23035;50.032;21.978;2022-12-07T09:47:55;11.02;;;8.20;;
37131;SDS011;23035;50.032;21.978;2022-12-07T09:53:04;11.82;;;8.27;;
37131;SDS011;23035;50.032;21.978;2022-12-07T09:58:17;11.27;;;7.45;;
37131;SDS011;23035;50.032;21.978;2022-12-07T10:03:25;8.57;;;6.97;;
37131;SDS011;23035;50.032;21.978;2022-12-07T10:08:32;11.40;;;7.88;;
37131;SDS011;23035;50.032;21.978;2022-12-07T10:13:39;11.57;;;8.87;;
37131;SDS011;23035;50.032;21.978;2022-12-07T10:18:47;11.23;;;7.28;;
37131;SDS011;23035;50.032;21.978;2022-12-07T10:24:03;9.00;;;7.05;;
37131;SDS011;23035;50.032;21.978;2022-12-07T10:29:16;10.23;;;7.78;;
37131;SDS011;23035;50.032;21.978;2022-12-07T10:34:24;11.67;;;8.17;;
37131;SDS011;23035;50.032;21.978;2022-12-07T10:39:31;9.77;;;7.68;;
37131;SDS011;23035;50.032;21.978;2022-12-07T10:44:47;9.75;;;7.88;;
37131;SDS011;23035;50.032;21.978;2022-12-07T10:52:11;9.93;;;7.82;;
37131;SDS011;23035;50.032;21.978;2022-12-07T10:57:26;9.33;;;7.53;;
37131;SDS011;23035;50.032;21.978;2022-12-07T11:02:46;8.80;;;7.20;;
37131;SDS011;23035;50.032;21.978;2022-12-07T11:08:12;10.07;;;7.50;;
37131;SDS011;23035;50.032;21.978;2022-12-07T11:13:25;9.65;;;7.35;;
37131;SDS011;23035;50.032;21.978;2022-12-07T11:18:38;10.98;;;7.18;;
37131;SDS011;23035;50.032;21.978;2022-12-07T11:23:52;12.20;;;9.50;;
37131;SDS011;23035;50.032;21.978;2022-12-07T11:29:09;14.20;;;10.02;;
37131;SDS011;23035;50.032;21.978;2022-12-07T11:34:29;13.52;;;8.77;;
37131;SDS011;23035;50.032;21.978;2022-12-07T11:39:41;10.63;;;7.85;;
37131;SDS011;23035;50.032;21.978;2022-12-07T11:44:52;15.00;;;9.00;;
37131;SDS011;23035;50.032;21.978;2022-12-07T11:50:03;12.57;;;7.45;;
37131;SDS011;23035;50.032;21.978;2022-12-07T11:55:30;15.35;;;8.73;;
37131;SDS011;23035;50.032;21.978;2022-12-07T12:00:44;11.63;;;8.38;;
37131;SDS011;23035;50.032;21.978;2022-12-07T12:05:49;11.60;;;7.93;;
37131;SDS011;23035;50.032;21.978;2022-12-07T12:10:55;15.65;;;9.38;;
37131;SDS011;23035;50.032;21.978;2022-12-07T12:16:11;12.85;;;8.35;;
37131;SDS011;23035;50.032;21.978;2022-12-07T12:21:27;14.43;;;8.75;;
37131;SDS011;23035;50.032;21.978;2022-12-07T12:26:35;12.63;;;7.90;;
37131;SDS011;23035;50.032;21.978;2022-12-07T12:31:41;11.30;;;7.28;;
37131;SDS011;23035;50.032;21.978;2022-12-07T12:36:46;16.88;;;8.82;;
37131;SDS011;23035;50.032;21.978;2022-12-07T12:41:56;13.95;;;8.05;;
37131;SDS011;23035;50.032;21.978;2022-12-07T12:52:49;25.98;;;12.32;;
37131;SDS011;23035;50.032;21.978;2022-12-07T13:03:51;19.73;;;10.60;;
37131;SDS011;23035;50.032;21.978;2022-12-07T13:08:57;19.48;;;11.77;;
37131;SDS011;23035;50.032;21.978;2022-12-07T13:20:00;17.40;;;10.33;;
37131;SDS011;23035;50.032;21.978;2022-12-07T13:25:20;19.35;;;10.20;;
37131;SDS011;23035;50.032;21.978;2022-12-07T13:30:31;19.67;;;8.90;;
37131;SDS011;23035;50.032;21.978;2022-12-07T13:35:37;22.13;;;10.87;;
37131;SDS011;23035;50.032;21.978;2022-12-07T13:40:42;19.85;;;10.40;;
37131;SDS011;23035;50.032;21.978;2022-12-07T13:45:46;23.38;;;10.55;;
37131;SDS011;23035;50.032;21.978;2022-12-07T13:51:02;15.32;;;7.82;;
37131;SDS011;23035;50.032;21.978;2022-12-07T13:56:12;13.05;;;8.15;;
37131;SDS011;23035;50.032;21.978;2022-12-07T14:01:18;11.95;;;7.22;;
37131;SDS011;23035;50.032;21.978;2022-12-07T14:06:24;19.20;;;10.20;;
37131;SDS011;23035;50.032;21.978;2022-12-07T14:11:30;12.48;;;6.93;;
37131;SDS011;23035;50.032;21.978;2022-12-07T14:16:35;16.85;;;10.32;;
37131;SDS011;23035;50.032;21.978;2022-12-07T14:21:42;17.92;;;9.63;;
37131;SDS011;23035;50.032;21.978;2022-12-07T14:26:47;18.20;;;8.93;;
37131;SDS011;23035;50.032;21.978;2022-12-07T14:31:52;24.25;;;11.38;;
37131;SDS011;23035;50.032;21.978;2022-12-07T14:36:59;38.72;;;17.65;;
37131;SDS011;23035;50.032;21.978;2022-12-07T14:42:03;20.08;;;10.82;;
37131;SDS011;23035;50.032;21.978;2022-12-07T14:47:08;30.92;;;16.50;;
37131;SDS011;23035;50.032;21.978;2022-12-07T14:52:34;22.65;;;13.52;;
37131;SDS011;23035;50.032;21.978;2022-12-07T14:57:58;28.10;;;14.32;;
37131;SDS011;23035;50.032;21.978;2022-12-07T15:03:03;36.65;;;18.15;;
37131;SDS011;23035;50.032;21.978;2022-12-07T15:08:09;35.22;;;18.00;;
37131;SDS011;23035;50.032;21.978;2022-12-07T15:13:15;30.52;;;16.33;;
37131;SDS011;23035;50.032;21.978;2022-12-07T15:18:37;32.72;;;17.80;;
37131;SDS011;23035;50.032;21.978;2022-12-07T15:23:51;28.83;;;16.38;;
37131;SDS011;23035;50.032;21.978;2022-12-07T15:28:55;32.58;;;16.52;;
37131;SDS011;23035;50.032;21.978;2022-12-07T15:33:59;31.05;;;14.95;;
37131;SDS011;23035;50.032;21.978;2022-12-07T15:39:04;37.20;;;16.52;;
37131;SDS011;23035;50.032;21.978;2022-12-07T15:44:16;28.42;;;16.20;;
37131;SDS011;23035;50.032;21.978;2022-12-07T15:49:38;32.40;;;17.02;;
37131;SDS011;23035;50.032;21.978;2022-12-07T15:54:43;37.45;;;17.65;;
37131;SDS011;23035;50.032;21.978;2022-12-07T15:59:47;31.65;;;16.00;;
37131;SDS011;23035;50.032;21.978;2022-12-07T16:04:51;36.25;;;18.05;;
37131;SDS011;23035;50.032;21.978;2022-12-07T16:09:57;41.38;;;17.65;;
37131;SDS011;23035;50.032;21.978;2022-12-07T16:15:01;45.78;;;19.60;;
37131;SDS011;23035;50.032;21.978;2022-12-07T16:20:07;31.80;;;16.55;;
37131;SDS011;23035;50.032;21.978;2022-12-07T16:25:13;44.25;;;24.48;;
37131;SDS011;23035;50.032;21.978;2022-12-07T16:30:17;34.20;;;18.50;;
37131;SDS011;23035;50.032;21.978;2022-12-07T16:35:21;34.03;;;18.48;;
37131;SDS011;23035;50.032;21.978;2022-12-07T16:40:27;33.95;;;18.73;;
37131;SDS011;23035;50.032;21.978;2022-12-07T16:45:31;41.08;;;20.05;;
37131;SDS011;23035;50.032;21.978;2022-12-07T16:50:36;34.92;;;18.05;;
37131;SDS011;23035;50.032;21.978;2022-12-07T16:55:50;41.95;;;19.42;;
37131;SDS011;23035;50.032;21.978;2022-12-07T17:00:55;28.40;;;16.50;;
37131;SDS011;23035;50.032;21.978;2022-12-07T17:05:59;25.45;;;15.25;;
37131;SDS011;23035;50.032;21.978;2022-12-07T17:11:04;27.27;;;15.00;;
37131;SDS011;23035;50.032;21.978;2022-12-07T17:16:13;35.08;;;17.10;;
37131;SDS011;23035;50.032;21.978;2022-12-07T17:21:18;32.10;;;16.60;;
37131;SDS011;23035;50.032;21.978;2022-12-07T17:26:25;36.03;;;18.13;;
37131;SDS011;23035;50.032;21.978;2022-12-07T17:31:36;30.60;;;15.32;;
37131;SDS011;23035;50.032;21.978;2022-12-07T17:36:41;27.58;;;15.07;;
37131;SDS011;23035;50.032;21.978;2022-12-07T17:41:48;30.83;;;15.60;;
37131;SDS011;23035;50.032;21.978;2022-12-07T17:47:10;32.25;;;16.35;;
37131;SDS011;23035;50.032;21.978;2022-12-07T17:52:17;31.70;;;15.48;;
37131;SDS011;23035;50.032;21.978;2022-12-07T17:57:40;30.58;;;15.77;;
37131;SDS011;23035;50.032;21.978;2022-12-07T18:07:49;24.55;;;14.38;;
37131;SDS011;23035;50.032;21.978;2022-12-07T18:12:56;23.03;;;12.97;;
37131;SDS011;23035;50.032;21.978;2022-12-07T18:18:13;21.63;;;13.15;;
37131;SDS011;23035;50.032;21.978;2022-12-07T18:23:17;24.08;;;12.95;;
37131;SDS011;23035;50.032;21.978;2022-12-07T18:28:24;22.17;;;12.65;;
37131;SDS011;23035;50.032;21.978;2022-12-07T18:33:28;25.67;;;12.80;;
37131;SDS011;23035;50.032;21.978;2022-12-07T18:38:32;24.10;;;12.88;;
37131;SDS011;23035;50.032;21.978;2022-12-07T18:43:38;23.83;;;13.05;;
37131;SDS011;23035;50.032;21.978;2022-12-07T18:48:42;23.73;;;13.60;;
37131;SDS011;23035;50.032;21.978;2022-12-07T18:53:47;24.70;;;13.30;;
37131;SDS011;23035;50.032;21.978;2022-12-07T18:58:54;26.70;;;14.95;;
37131;SDS011;23035;50.032;21.978;2022-12-07T19:04:17;25.05;;;13.95;;
37131;SDS011;23035;50.032;21.978;2022-12-07T19:09:22;27.63;;;14.15;;
37131;SDS011;23035;50.032;21.978;2022-12-07T19:14:28;31.17;;;15.18;;
37131;SDS011;23035;50.032;21.978;2022-12-07T19:19:34;30.02;;;14.85;;
37131;SDS011;23035;50.032;21.978;2022-12-07T19:24:39;30.13;;;14.80;;
37131;SDS011;23035;50.032;21.978;2022-12-07T19:29:46;32.85;;;17.05;;
37131;SDS011;23035;50.032;21.978;2022-12-07T19:34:51;33.22;;;16.92;;
37131;SDS011;23035;50.032;21.978;2022-12-07T19:39:56;32.38;;;16.75;;
37131;SDS011;23035;50.032;21.978;2022-12-07T19:45:02;53.55;;;24.88;;
37131;SDS011;23035;50.032;21.978;2022-12-07T19:50:08;54.90;;;24.58;;
37131;SDS011;23035;50.032;21.978;2022-12-07T19:55:12;38.08;;;19.67;;
37131;SDS011;23035;50.032;21.978;2022-12-07T20:00:18;43.65;;;21.25;;
37131;SDS011;23035;50.032;21.978;2022-12-07T20:05:23;34.75;;;17.52;;
37131;SDS011;23035;50.032;21.978;2022-12-07T20:10:27;38.03;;;16.70;;
37131;SDS011;23035;50.032;21.978;2022-12-07T20:15:32;35.15;;;18.45;;
37131;SDS011;23035;50.032;21.978;2022-12-07T20:20:39;36.13;;;17.45;;
37131;SDS011;23035;50.032;21.978;2022-12-07T20:25:44;26.10;;;14.03;;
37131;SDS011;23035;50.032;21.978;2022-12-07T20:30:50;54.38;;;23.92;;
37131;SDS011;23035;50.032;21.978;2022-12-07T20:35:57;32.30;;;16.13;;
37131;SDS011;23035;50.032;21.978;2022-12-07T20:41:04;37.75;;;18.02;;
37131;SDS011;23035;50.032;21.978;2022-12-07T20:46:11;38.92;;;17.27;;
37131;SDS011;23035;50.032;21.978;2022-12-07T20:51:15;46.47;;;21.20;;
37131;SDS011;23035;50.032;21.978;2022-12-07T20:56:20;53.58;;;23.70;;
37131;SDS011;23035;50.032;21.978;2022-12-07T21:01:28;45.45;;;20.85;;
37131;SDS011;23035;50.032;21.978;2022-12-07T21:11:36;44.72;;;20.83;;
37131;SDS011;23035;50.032;21.978;2022-12-07T21:16:42;39.10;;;18.13;;
37131;SDS011;23035;50.032;21.978;2022-12-07T21:21:46;39.35;;;18.73;;
37131;SDS011;23035;50.032;21.978;2022-12-07T21:26:50;33.17;;;18.25;;
37131;SDS011;23035;50.032;21.978;2022-12-07T21:31:55;32.47;;;14.95;;
37131;SDS011;23035;50.032;21.978;2022-12-07T21:36:59;30.23;;;14.52;;
37131;SDS011;23035;50.032;21.978;2022-12-07T21:42:03;34.22;;;16.40;;
37131;SDS011;23035;50.032;21.978;2022-12-07T21:47:09;26.30;;;14.27;;
37131;SDS011;23035;50.032;21.978;2022-12-07T21:52:13;26.35;;;14.52;;
37131;SDS011;23035;50.032;21.978;2022-12-07T21:57:17;43.63;;;21.38;;
37131;SDS011;23035;50.032;21.978;2022-12-07T22:02:22;26.33;;;13.50;;
37131;SDS011;23035;50.032;21.978;2022-12-07T22:07:26;22.60;;;12.35;;
37131;SDS011;23035;50.032;21.978;2022-12-07T22:12:30;20.38;;;11.27;;
37131;SDS011;23035;50.032;21.978;2022-12-07T22:17:36;19.13;;;11.02;;
37131;SDS011;23035;50.032;21.978;2022-12-07T22:22:40;21.23;;;12.00;;
37131;SDS011;23035;50.032;21.978;2022-12-07T22:27:43;23.92;;;13.48;;
37131;SDS011;23035;50.032;21.978;2022-12-07T22:32:49;28.20;;;14.85;;
37131;SDS011;23035;50.032;21.978;2022-12-07T22:37:53;31.02;;;14.18;;
37131;SDS011;23035;50.032;21.978;2022-12-07T22:42:57;24.10;;;13.25;;
37131;SDS011;23035;50.032;21.978;2022-12-07T22:48:04;23.20;;;12.02;;
37131;SDS011;23035;50.032;21.978;2022-12-07T22:53:09;25.77;;;13.30;;
37131;SDS011;23035;50.032;21.978;2022-12-07T22:58:13;18.42;;;10.30;;
37131;SDS011;23035;50.032;21.978;2022-12-07T23:03:28;24.73;;;12.98;;
37131;SDS011;23035;50.032;21.978;2022-12-07T23:08:32;51.38;;;23.85;;
37131;SDS011;23035;50.032;21.978;2022-12-07T23:13:36;27.85;;;14.30;;
37131;SDS011;23035;50.032;21.978;2022-12-07T23:18:41;50.45;;;25.60;;
37131;SDS011;23035;50.032;21.978;2022-12-07T23:23:45;17.20;;;9.93;;
37131;SDS011;23035;50.032;21.978;2022-12-07T23:28:49;28.48;;;14.77;;
37131;SDS011;23035;50.032;21.978;2022-12-07T23:33:55;23.77;;;11.43;;
37131;SDS011;23035;50.032;21.978;2022-12-07T23:38:59;20.55;;;12.10;;
37131;SDS011;23035;50.032;21.978;2022-12-07T23:44:03;20.58;;;12.05;;
37131;SDS011;23035;50.032;21.978;2022-12-07T23:49:09;18.10;;;10.75;;
37131;SDS011;23035;50.032;21.978;2022-12-07T23:54:14;24.73;;;10.80;;
37131;SDS011;23035;50.032;21.978;2022-12-07T23:59:18;17.55;;;10.48;;
